Time;durP1;ratioP1;P1;durP2;ratioP2;P2;SDS_P1;SDS_P2;PMS_P1;PMS_P2;Temp;Humidity;BMP_temperature;BMP_pressure;BME280_temperature;BME280_humidity;BME280_pressure;Samples;Min_cycle;Max_cycle;Signal;HPM_P1;HPM_P2
2021/09/09 00:01:59;;;;;;;20.05;10.70;;;20.50;1.00;;;;;;5036893;28;20034;-84
2021/09/09 00:04:25;;;;;;;10.57;9.57;;;20.50;1.00;;;;;;5037076;28;20045;-85
2021/09/09 00:06:50;;;;;;;12.27;11.13;;;20.50;1.00;;;;;;5037208;28;20439;-84
2021/09/09 00:09:18;;;;;;;15.13;11.23;;;20.50;1.00;;;;;;5036940;28;20037;-85
2021/09/09 00:11:44;;;;;;;14.90;11.48;;;20.50;1.00;;;;;;5036606;28;20053;-84
2021/09/09 00:14:09;;;;;;;14.77;11.70;;;20.50;1.00;;;;;;5019151;28;20037;-85
2021/09/09 00:16:35;;;;;;;14.57;13.20;;;20.50;1.00;;;;;;5036672;28;20037;-85
2021/09/09 00:19:01;;;;;;;13.90;12.13;;;20.60;1.00;;;;;;5036756;28;20060;-85
2021/09/09 00:21:27;;;;;;;12.43;11.30;;;20.60;1.00;;;;;;5036337;28;20041;-85
2021/09/09 00:23:53;;;;;;;13.50;11.48;;;20.60;1.00;;;;;;5036455;28;20527;-85
2021/09/09 00:26:19;;;;;;;13.18;12.00;;;20.60;1.00;;;;;;5036312;28;20480;-85
2021/09/09 00:28:44;;;;;;;13.88;12.13;;;20.60;1.00;;;;;;5036657;28;20144;-85
2021/09/09 00:31:10;;;;;;;13.73;11.60;;;20.50;1.00;;;;;;5037230;28;20120;-85
2021/09/09 00:33:37;;;;;;;13.10;11.05;;;20.50;1.00;;;;;;5036871;28;20045;-85
2021/09/09 00:36:03;;;;;;;12.93;11.48;;;20.50;1.00;;;;;;5018974;28;20029;-85
2021/09/09 00:38:29;;;;;;;13.95;12.55;;;20.50;1.00;;;;;;5018739;28;20152;-85
2021/09/09 00:40:55;;;;;;;13.57;12.18;;;20.50;1.00;;;;;;5019106;28;20068;-85
2021/09/09 00:43:21;;;;;;;15.57;11.63;;;20.60;1.00;;;;;;5036948;28;20041;-85
2021/09/09 00:45:54;;;;;;;13.38;11.68;;;20.50;1.00;;;;;;5036134;28;20511;-85
2021/09/09 00:48:21;;;;;;;13.38;12.07;;;20.50;1.00;;;;;;5019157;28;20045;-85
2021/09/09 00:50:48;;;;;;;16.13;12.68;;;20.50;1.00;;;;;;5036222;28;20124;-84
2021/09/09 00:53:15;;;;;;;13.82;12.27;;;20.50;1.00;;;;;;5018648;28;20060;-85
2021/09/09 00:55:42;;;;;;;14.00;11.10;;;20.50;1.00;;;;;;5036226;28;20484;-84
2021/09/09 00:58:08;;;;;;;14.48;13.02;;;20.50;1.00;;;;;;5036319;28;20091;-84
2021/09/09 01:00:36;;;;;;;15.98;12.07;;;20.50;1.00;;;;;;5018382;28;20116;-85
2021/09/09 01:03:02;;;;;;;10.07;9.27;;;20.50;1.00;;;;;;5036160;28;20042;-84
2021/09/09 01:05:28;;;;;;;8.10;6.13;;;20.50;1.00;;;;;;5018514;28;20503;-84
2021/09/09 01:07:57;;;;;;;7.03;5.38;;;20.40;1.00;;;;;;5036183;28;20491;-84
2021/09/09 01:10:23;;;;;;;11.55;5.53;;;20.30;1.00;;;;;;5035857;28;20037;-84
2021/09/09 01:12:49;;;;;;;12.57;5.80;;;20.30;1.00;;;;;;5036066;28;20052;-84
2021/09/09 01:15:14;;;;;;;7.75;5.53;;;20.20;1.00;;;;;;5035873;28;20026;-85
2021/09/09 01:17:40;;;;;;;8.43;4.80;;;20.10;1.00;;;;;;5035734;28;20145;-85
2021/09/09 01:20:07;;;;;;;19.42;5.68;;;20.10;1.00;;;;;;5035839;28;20034;-85
2021/09/09 01:22:32;;;;;;;61.67;6.57;;;20.00;1.00;;;;;;5035198;28;20041;-85
2021/09/09 01:24:59;;;;;;;23.05;6.28;;;19.90;1.00;;;;;;5035842;28;20431;-85
2021/09/09 01:27:25;;;;;;;20.63;5.80;;;19.80;1.00;;;;;;5017815;28;20045;-85
2021/09/09 01:29:50;;;;;;;12.40;6.45;;;19.80;1.00;;;;;;5035606;28;20111;-85
2021/09/09 01:32:17;;;;;;;7.10;5.80;;;19.70;1.00;;;;;;5035291;28;20037;-85
2021/09/09 01:34:43;;;;;;;9.32;6.32;;;19.70;1.00;;;;;;5035575;28;20046;-85
2021/09/09 01:37:11;;;;;;;13.20;7.18;;;19.70;1.00;;;;;;5035714;28;20037;-85
2021/09/09 01:39:44;;;;;;;10.70;7.40;;;19.80;1.00;;;;;;5035323;28;20037;-85
2021/09/09 01:42:10;;;;;;;10.50;8.05;;;19.80;1.00;;;;;;5035676;28;20036;-85
2021/09/09 01:44:36;;;;;;;14.82;8.15;;;19.80;1.00;;;;;;5017764;28;20046;-85
2021/09/09 01:47:02;;;;;;;8.18;7.32;;;19.80;1.00;;;;;;5017304;28;20033;-85
2021/09/09 01:49:28;;;;;;;16.73;9.18;;;19.80;1.00;;;;;;5035303;28;20087;-85
2021/09/09 01:51:55;;;;;;;10.57;9.13;;;19.80;1.00;;;;;;5035004;28;20029;-85
2021/09/09 01:54:21;;;;;;;12.88;8.93;;;19.80;1.00;;;;;;5035487;28;20088;-85
2021/09/09 01:56:49;;;;;;;11.90;9.70;;;19.90;1.00;;;;;;5035168;28;20037;-85
2021/09/09 01:59:15;;;;;;;14.13;10.07;;;19.90;1.00;;;;;;5035507;28;20037;-85
2021/09/09 02:01:41;;;;;;;12.70;11.50;;;19.90;1.00;;;;;;5034705;28;20079;-85
2021/09/09 02:04:07;;;;;;;13.38;12.00;;;19.90;1.00;;;;;;5017937;28;20044;-85
2021/09/09 02:06:33;;;;;;;15.02;12.82;;;19.90;1.00;;;;;;5017253;28;20033;-85
2021/09/09 02:09:00;;;;;;;13.65;12.32;;;20.00;1.00;;;;;;5035342;28;20065;-85
2021/09/09 02:11:26;;;;;;;15.32;12.85;;;19.90;1.00;;;;;;5035148;28;20064;-85
2021/09/09 02:13:52;;;;;;;12.30;11.00;;;20.00;1.00;;;;;;5034739;28;20065;-85
2021/09/09 02:16:18;;;;;;;13.93;12.45;;;20.00;1.00;;;;;;5034805;28;20040;-85
2021/09/09 02:18:44;;;;;;;15.25;13.27;;;19.90;1.00;;;;;;5034934;28;20053;-85
2021/09/09 02:21:11;;;;;;;16.00;12.70;;;20.00;1.00;;;;;;5034936;28;20033;-85
2021/09/09 02:23:37;;;;;;;14.63;13.15;;;19.90;1.00;;;;;;5034895;28;20026;-85
2021/09/09 02:26:04;;;;;;;13.70;12.43;;;19.90;1.00;;;;;;5034827;28;20129;-85
2021/09/09 02:28:30;;;;;;;15.05;13.52;;;19.90;1.00;;;;;;5035009;28;20067;-85
2021/09/09 02:30:55;;;;;;;14.60;13.02;;;19.90;1.00;;;;;;5034752;28;20087;-85
2021/09/09 02:33:21;;;;;;;13.85;12.45;;;20.00;1.00;;;;;;5034920;28;20044;-85
2021/09/09 02:35:47;;;;;;;13.98;12.60;;;19.90;1.00;;;;;;5034803;28;20419;-85
2021/09/09 02:38:13;;;;;;;15.77;14.07;;;19.90;1.00;;;;;;5016661;28;20056;-85
2021/09/09 02:40:39;;;;;;;14.35;13.02;;;19.90;1.00;;;;;;5017480;28;20040;-85
2021/09/09 02:43:05;;;;;;;15.35;13.70;;;20.00;1.00;;;;;;5016851;28;20412;-85
2021/09/09 02:45:31;;;;;;;15.88;13.00;;;19.90;1.00;;;;;;5034504;28;20489;-85
2021/09/09 02:47:57;;;;;;;28.08;13.40;;;19.90;1.00;;;;;;5016628;28;20041;-85
2021/09/09 02:50:22;;;;;;;15.80;13.90;;;19.90;1.00;;;;;;5035065;28;20044;-85
2021/09/09 02:52:48;;;;;;;13.98;12.60;;;19.90;1.00;;;;;;5034549;28;20116;-85
2021/09/09 02:55:14;;;;;;;14.32;12.65;;;19.90;1.00;;;;;;5016816;28;20124;-85
2021/09/09 02:57:40;;;;;;;16.08;13.05;;;19.90;1.00;;;;;;5016494;28;20048;-85
2021/09/09 03:00:08;;;;;;;18.88;13.30;;;19.90;1.00;;;;;;5034394;28;20052;-85
2021/09/09 03:02:34;;;;;;;18.60;13.88;;;19.90;1.00;;;;;;5034515;28;20029;-85
2021/09/09 03:05:00;;;;;;;13.05;11.80;;;19.90;1.00;;;;;;5016708;28;20033;-85
2021/09/09 03:07:26;;;;;;;15.95;11.70;;;19.90;1.00;;;;;;5034474;28;20033;-85
2021/09/09 03:09:51;;;;;;;13.52;11.80;;;19.90;1.00;;;;;;5034092;28;20072;-85
2021/09/09 03:12:17;;;;;;;14.32;12.07;;;19.90;1.00;;;;;;5016700;28;20084;-85
2021/09/09 03:14:43;;;;;;;15.18;12.93;;;19.80;1.00;;;;;;5034232;28;20103;-85
2021/09/09 03:17:10;;;;;;;13.57;12.20;;;19.90;1.00;;;;;;5034320;28;20041;-85
2021/09/09 03:19:39;;;;;;;18.52;13.02;;;19.80;1.00;;;;;;5016648;28;20037;-85
2021/09/09 03:22:05;;;;;;;16.40;13.35;;;19.80;1.00;;;;;;5016492;28;20080;-85
2021/09/09 03:24:31;;;;;;;14.48;13.02;;;19.80;1.00;;;;;;5034307;28;20033;-85
2021/09/09 03:26:57;;;;;;;13.35;12.15;;;19.80;1.00;;;;;;5034561;28;20045;-85
2021/09/09 03:29:23;;;;;;;14.63;12.00;;;19.80;1.00;;;;;;5034204;28;20374;-85
2021/09/09 03:31:49;;;;;;;17.83;13.15;;;19.80;1.00;;;;;;5033789;28;20076;-85
2021/09/09 03:34:15;;;;;;;18.10;11.93;;;19.80;1.00;;;;;;5034748;28;20373;-85
2021/09/09 03:36:40;;;;;;;16.48;14.32;;;19.80;1.00;;;;;;5034142;28;20152;-85
2021/09/09 03:39:06;;;;;;;15.75;12.88;;;19.80;1.00;;;;;;5034388;28;20124;-85
2021/09/09 03:41:32;;;;;;;14.80;13.32;;;19.80;1.00;;;;;;5034111;28;20048;-85
2021/09/09 03:43:58;;;;;;;14.60;13.07;;;19.80;1.00;;;;;;5033833;28;20060;-84
2021/09/09 03:46:24;;;;;;;15.95;14.43;;;19.70;1.00;;;;;;5018619;28;20079;-85
2021/09/09 03:48:50;;;;;;;16.38;13.80;;;19.80;1.00;;;;;;5037186;28;20041;-85
2021/09/09 03:51:16;;;;;;;16.05;12.98;;;19.80;1.00;;;;;;5037602;28;20527;-85
2021/09/09 03:53:42;;;;;;;15.02;13.23;;;19.80;1.00;;;;;;5019810;28;20139;-85
2021/09/09 03:56:07;;;;;;;15.75;13.52;;;19.70;1.00;;;;;;5019744;28;20040;-85
2021/09/09 03:58:33;;;;;;;14.88;13.38;;;19.80;1.00;;;;;;5020073;28;20128;-85
2021/09/09 04:00:59;;;;;;;15.02;13.52;;;19.70;1.00;;;;;;5037514;28;20580;-85
2021/09/09 04:03:25;;;;;;;15.10;13.52;;;19.80;1.00;;;;;;5019632;28;20464;-85
2021/09/09 04:05:51;;;;;;;14.45;12.98;;;19.80;1.00;;;;;;5019561;28;20125;-86
2021/09/09 04:08:16;;;;;;;14.93;13.07;;;19.70;1.00;;;;;;5037212;28;20054;-85
2021/09/09 04:10:42;;;;;;;15.88;13.55;;;19.70;1.00;;;;;;5029520;28;20045;-84
2021/09/09 04:13:08;;;;;;;14.10;12.57;;;19.70;1.00;;;;;;5006748;28;20038;-85
2021/09/09 04:15:34;;;;;;;14.40;11.95;;;19.70;1.00;;;;;;5022634;28;20165;-85
2021/09/09 04:18:00;;;;;;;13.25;11.48;;;19.70;1.00;;;;;;5009928;28;20500;-85
2021/09/09 04:20:26;;;;;;;14.52;13.13;;;19.70;1.00;;;;;;5016868;28;20042;-85
2021/09/09 04:22:52;;;;;;;15.23;12.73;;;19.70;1.00;;;;;;5017278;28;20041;-85
2021/09/09 04:25:18;;;;;;;13.70;12.40;;;19.70;1.00;;;;;;5016491;28;20029;-85
2021/09/09 04:27:44;;;;;;;14.15;12.68;;;19.60;1.00;;;;;;5021338;28;20124;-85
2021/09/09 04:30:10;;;;;;;13.40;12.05;;;19.60;1.00;;;;;;5034642;28;20373;-85
2021/09/09 04:32:36;;;;;;;15.57;13.05;;;19.70;1.00;;;;;;5036133;28;20029;-85
2021/09/09 04:35:02;;;;;;;13.90;12.38;;;19.60;1.00;;;;;;5036368;28;20045;-82
2021/09/09 04:37:28;;;;;;;14.85;12.70;;;19.60;1.00;;;;;;5035712;28;20044;-82
2021/09/09 04:39:54;;;;;;;16.30;12.88;;;19.60;1.00;;;;;;5036719;28;20123;-83
2021/09/09 04:42:19;;;;;;;13.75;12.38;;;19.60;1.00;;;;;;5056754;28;20414;-83
2021/09/09 04:44:45;;;;;;;16.25;12.40;;;19.60;1.00;;;;;;5056467;28;20036;-83
2021/09/09 04:47:11;;;;;;;16.23;12.25;;;19.60;1.00;;;;;;5050349;28;20041;-82
2021/09/09 04:49:37;;;;;;;15.73;11.88;;;19.60;1.00;;;;;;5018225;28;20033;-82
2021/09/09 04:52:03;;;;;;;14.13;12.82;;;19.50;1.00;;;;;;5035955;28;20044;-83
2021/09/09 04:54:30;;;;;;;14.52;13.13;;;19.50;1.00;;;;;;5035362;28;20045;-83
2021/09/09 04:56:55;;;;;;;14.25;12.95;;;19.60;1.00;;;;;;5034693;28;20076;-83
2021/09/09 04:59:21;;;;;;;15.38;13.30;;;19.60;1.00;;;;;;5035238;28;20045;-83
2021/09/09 05:01:47;;;;;;;14.02;12.27;;;19.60;1.00;;;;;;5035095;28;20040;-83
2021/09/09 05:04:13;;;;;;;15.88;14.18;;;19.60;1.00;;;;;;5035418;28;20523;-82
2021/09/09 05:06:39;;;;;;;13.13;11.63;;;19.60;1.00;;;;;;5035128;28;20030;-83
2021/09/09 05:09:04;;;;;;;16.35;13.25;;;19.60;1.00;;;;;;5032643;28;20408;-83
2021/09/09 05:11:30;;;;;;;15.30;13.38;;;19.60;1.00;;;;;;5035041;28;20124;-82
2021/09/09 05:13:56;;;;;;;15.07;13.52;;;19.50;1.00;;;;;;5032644;28;20063;-83
2021/09/09 05:16:22;;;;;;;13.57;12.18;;;19.50;1.00;;;;;;5034653;28;20040;-83
2021/09/09 05:18:48;;;;;;;14.00;12.60;;;19.50;1.00;;;;;;5034566;28;20067;-83
2021/09/09 05:21:13;;;;;;;13.50;12.13;;;19.50;1.00;;;;;;5033668;28;20036;-82
2021/09/09 05:23:39;;;;;;;14.25;12.85;;;19.50;1.00;;;;;;5033833;28;20095;-82
2021/09/09 05:26:05;;;;;;;13.98;12.70;;;19.50;1.00;;;;;;5033763;28;20041;-86
2021/09/09 05:28:31;;;;;;;14.23;12.70;;;19.50;1.00;;;;;;5012985;28;20085;-81
2021/09/09 05:30:57;;;;;;;14.48;13.15;;;19.50;1.00;;;;;;5015003;28;20053;-81
2021/09/09 05:33:22;;;;;;;15.43;13.93;;;19.50;1.00;;;;;;5015999;28;20046;-82
2021/09/09 05:35:48;;;;;;;14.00;12.45;;;19.50;1.00;;;;;;5015731;28;20389;-80
2021/09/09 05:38:14;;;;;;;15.60;12.85;;;19.50;1.00;;;;;;5015973;28;20053;-84
2021/09/09 05:40:40;;;;;;;14.63;13.00;;;19.50;1.00;;;;;;4998170;28;20034;-80
2021/09/09 05:43:06;;;;;;;15.27;13.68;;;19.50;1.00;;;;;;5015562;28;20497;-81
2021/09/09 05:45:31;;;;;;;14.95;13.15;;;19.50;1.00;;;;;;4996800;28;20037;-81
2021/09/09 05:47:58;;;;;;;13.90;12.65;;;19.50;1.00;;;;;;5015807;28;20128;-81
2021/09/09 05:50:24;;;;;;;14.75;13.43;;;19.50;1.00;;;;;;5014357;28;20065;-80
2021/09/09 05:52:50;;;;;;;19.60;14.45;;;19.50;1.00;;;;;;5013340;28;20519;-81
2021/09/09 05:55:16;;;;;;;15.57;14.13;;;19.50;1.00;;;;;;5013499;28;20037;-81
2021/09/09 05:57:41;;;;;;;21.35;14.80;;;19.50;1.00;;;;;;5013631;28;20157;-80
2021/09/09 06:00:10;;;;;;;16.45;14.73;;;19.50;1.00;;;;;;5013011;28;20080;-81
2021/09/09 06:02:45;;;;;;;16.27;14.57;;;19.50;1.00;;;;;;4995539;28;20037;-80
2021/09/09 06:05:12;;;;;;;20.13;13.93;;;19.50;1.00;;;;;;5013652;28;20100;-80
2021/09/09 06:07:38;;;;;;;16.55;13.98;;;19.50;1.00;;;;;;5013346;28;20041;-80
2021/09/09 06:10:05;;;;;;;18.38;14.63;;;19.50;1.00;;;;;;5013604;28;20061;-80
2021/09/09 06:12:31;;;;;;;21.05;14.93;;;19.50;1.00;;;;;;5014447;28;20100;-77
2021/09/09 06:14:57;;;;;;;16.33;14.70;;;19.40;1.00;;;;;;5015324;28;20046;-80
2021/09/09 06:17:23;;;;;;;21.73;15.27;;;19.40;1.00;;;;;;4996421;28;20492;-80
2021/09/09 06:19:49;;;;;;;16.08;14.40;;;19.30;1.00;;;;;;5014634;28;20038;-80
2021/09/09 06:22:14;;;;;;;22.02;15.60;;;19.20;1.00;;;;;;4989614;28;20072;-80
2021/09/09 06:24:40;;;;;;;16.38;14.63;;;19.20;1.00;;;;;;4991516;28;20069;-79
2021/09/09 06:27:06;;;;;;;14.82;13.38;;;19.30;1.00;;;;;;4991622;28;20045;-79
2021/09/09 06:29:47;;;;;;;19.90;16.00;;;19.30;1.00;;;;;;5005013;28;20045;-82
2021/09/09 08:08:05;;;;;;;;;;;;;;;;;;;;;
2021/09/09 08:18:19;;;;;;;17.92;11.05;;;21.30;1.00;;;;;;4866981;29;20047;-81
2021/09/09 08:21:16;;;;;;;13.07;11.95;;;21.30;1.00;;;;;;4982600;28;20043;-81
2021/09/09 08:24:21;;;;;;;12.55;11.20;;;21.40;1.00;;;;;;4997060;28;20035;-81
2021/09/09 08:27:30;;;;;;;11.90;10.68;;;21.70;1.00;;;;;;4979031;28;20069;-81
2021/09/09 08:30:51;;;;;;;;;;;;;;;;;;;;;
2021/09/09 08:37:17;;;;;;;13.73;11.25;;;21.80;1.00;;;;;;4955243;28;20062;-81
2021/09/09 08:40:07;;;;;;;12.88;10.55;;;21.90;1.00;;;;;;4937557;28;20511;-83
2021/09/09 08:42:59;;;;;;;12.65;10.20;;;22.00;1.00;;;;;;4972800;28;20069;-81
2021/09/09 08:45:28;;;;;;;11.63;10.45;;;22.00;1.00;;;;;;4911631;29;20543;-81
2021/09/09 08:47:54;;;;;;;11.85;9.70;;;22.30;1.00;;;;;;4992368;28;20070;-80
2021/09/09 08:50:25;;;;;;;15.00;11.48;;;22.40;1.00;;;;;;4977419;28;20034;-83
2021/09/09 08:52:52;;;;;;;15.35;10.10;;;22.70;1.00;;;;;;4977443;28;20045;-79
2021/09/09 08:55:19;;;;;;;12.55;9.98;;;22.90;1.00;;;;;;4992501;28;20042;-81
2021/09/09 09:05:40;;;;;;;11.77;9.32;;;22.90;1.00;;;;;;4901113;29;20036;-81
2021/09/09 09:08:28;;;;;;;11.55;9.52;;;22.50;1.00;;;;;;4902644;29;20055;-81
2021/09/09 09:24:53;;;;;;;15.57;9.50;;;23.40;1.00;;;;;;5013355;28;20076;-82
2021/09/09 10:04:52;;;;;;;;;;;;;;;;;;;;;
2021/09/09 14:16:15;;;;;;;11.43;8.57;;;24.50;1.00;;;;;;5013951;28;20040;-81
2021/09/09 14:18:55;;;;;;;12.70;7.57;;;24.30;1.00;;;;;;4996243;28;20057;-80
2021/09/09 14:21:21;;;;;;;10.85;7.97;;;24.30;1.00;;;;;;5011427;28;20037;-80
2021/09/09 14:23:47;;;;;;;11.65;7.70;;;24.20;1.00;;;;;;5010124;28;20037;-80
2021/09/09 14:26:13;;;;;;;13.90;8.18;;;24.30;1.00;;;;;;5011549;28;20497;-81
2021/09/09 14:28:39;;;;;;;11.02;8.10;;;24.30;1.00;;;;;;5014622;28;20053;-81
2021/09/09 14:31:05;;;;;;;12.00;7.80;;;24.20;1.00;;;;;;5014267;28;20037;-81
2021/09/09 14:33:33;;;;;;;10.57;8.25;;;24.30;1.00;;;;;;5018481;28;20041;-82
2021/09/09 14:35:59;;;;;;;11.15;7.97;;;24.30;1.00;;;;;;5014523;28;20034;-81
2021/09/09 14:38:25;;;;;;;11.30;7.68;;;24.40;1.00;;;;;;5014396;28;20053;-80
2021/09/09 14:40:53;;;;;;;10.60;7.60;;;24.40;1.00;;;;;;5032399;28;20091;-81
2021/09/09 14:50:16;;;;;;;10.80;7.82;;;24.00;1.00;;;;;;4998826;28;20526;-82
2021/09/09 14:56:39;;;;;;;11.35;7.57;;;23.80;1.00;;;;;;4989923;28;20061;-84
2021/09/09 14:59:18;;;;;;;7.63;6.78;;;23.80;1.00;;;;;;4991486;28;20557;-83
2021/09/09 15:58:49;;;;;;;12.70;6.97;;;23.80;1.00;;;;;;4998425;28;20130;-81
2021/09/09 16:01:18;;;;;;;9.32;7.22;;;23.80;1.00;;;;;;5018705;28;20045;-85
2021/09/09 16:04:16;;;;;;;14.55;8.30;;;23.80;1.00;;;;;;5018830;28;20125;-83
2021/09/09 16:07:07;;;;;;;8.48;6.70;;;23.80;1.00;;;;;;5013647;28;20044;-84
2021/09/09 16:09:33;;;;;;;14.80;6.97;;;23.70;1.00;;;;;;5037276;28;20030;-86
2021/09/09 16:11:59;;;;;;;12.43;6.88;;;23.70;1.00;;;;;;5036532;28;20041;-85
2021/09/09 16:14:27;;;;;;;10.60;6.97;;;23.50;1.00;;;;;;5019172;28;20036;-86
2021/09/09 16:16:53;;;;;;;10.02;7.30;;;23.40;1.00;;;;;;5036037;28;20037;-80
2021/09/09 16:19:21;;;;;;;13.50;7.55;;;23.30;1.00;;;;;;5018864;28;20041;-81
2021/09/09 16:21:47;;;;;;;12.75;7.60;;;23.20;1.00;;;;;;5027416;28;20090;-81
2021/09/09 16:24:13;;;;;;;13.35;7.13;;;23.10;1.00;;;;;;5025298;28;20116;-81
2021/09/09 16:26:39;;;;;;;13.52;7.15;;;22.90;1.00;;;;;;5033565;28;20496;-78
2021/09/09 16:29:05;;;;;;;10.35;6.75;;;22.80;1.00;;;;;;5036915;28;20071;-78
2021/09/09 16:31:31;;;;;;;14.02;7.20;;;22.80;1.00;;;;;;5034718;28;20049;-78
2021/09/09 16:33:56;;;;;;;11.68;7.13;;;22.70;1.00;;;;;;5026072;28;20452;-78
2021/09/09 16:36:22;;;;;;;12.23;7.88;;;22.60;1.00;;;;;;5035514;28;20128;-79
2021/09/09 16:38:50;;;;;;;12.20;7.28;;;22.50;1.00;;;;;;5035454;28;20144;-81
2021/09/09 16:41:16;;;;;;;13.93;6.50;;;22.50;1.00;;;;;;5034381;28;20041;-79
2021/09/09 16:43:42;;;;;;;11.55;6.45;;;22.50;1.00;;;;;;5035057;28;20045;-80
2021/09/09 16:46:08;;;;;;;10.73;7.70;;;22.40;1.00;;;;;;5035508;28;20037;-81
2021/09/09 16:48:36;;;;;;;9.30;6.50;;;22.40;1.00;;;;;;5033604;28;20029;-81
2021/09/09 16:51:02;;;;;;;13.43;7.13;;;22.40;1.00;;;;;;5033451;28;20045;-82
2021/09/09 16:53:28;;;;;;;18.00;6.80;;;22.40;1.00;;;;;;5017312;28;20484;-81
2021/09/09 16:55:54;;;;;;;10.88;7.05;;;22.40;1.00;;;;;;5018232;28;20044;-81
2021/09/09 16:58:24;;;;;;;9.70;6.90;;;22.40;1.00;;;;;;5020053;28;20076;-81
2021/09/09 17:01:07;;;;;;;12.93;7.05;;;22.40;1.00;;;;;;5032385;28;20076;-81
2021/09/09 17:03:50;;;;;;;10.02;6.30;;;22.40;1.00;;;;;;5021307;28;20128;-81
2021/09/09 17:06:27;;;;;;;11.32;6.20;;;22.40;1.00;;;;;;5029307;28;20033;-81
2021/09/09 17:09:10;;;;;;;15.25;6.53;;;22.30;1.00;;;;;;5023774;28;20603;-80
2021/09/09 17:11:45;;;;;;;10.77;6.60;;;22.40;1.00;;;;;;5036460;28;20115;-78
2021/09/09 17:14:24;;;;;;;11.68;6.82;;;22.40;1.00;;;;;;5009101;28;20495;-78
2021/09/09 17:16:50;;;;;;;13.40;6.40;;;22.30;1.00;;;;;;5044534;28;20126;-78
2021/09/09 17:19:16;;;;;;;11.55;6.05;;;22.20;1.00;;;;;;5033457;28;20053;-78
2021/09/09 17:21:59;;;;;;;12.77;6.45;;;22.20;1.00;;;;;;5020708;28;20044;-83
2021/09/09 17:38:21;;;;;;;10.52;6.55;;;22.20;1.00;;;;;;4885234;28;20108;-82
2021/09/09 17:40:47;;;;;;;9.32;6.72;;;22.10;1.00;;;;;;4932583;29;20550;-81
2021/09/09 17:43:14;;;;;;;9.95;6.10;;;22.00;1.00;;;;;;4997171;28;20033;-81
2021/09/09 17:45:40;;;;;;;10.60;6.65;;;21.90;1.00;;;;;;5037038;28;20033;-81
2021/09/09 17:48:06;;;;;;;9.00;6.78;;;21.80;1.00;;;;;;5037998;28;20606;-81
2021/09/09 17:50:32;;;;;;;11.65;6.53;;;21.70;1.00;;;;;;5039633;28;20496;-81
2021/09/09 17:52:59;;;;;;;11.27;7.40;;;21.70;1.00;;;;;;5039138;28;20108;-81
2021/09/09 17:55:25;;;;;;;15.05;6.45;;;21.60;1.00;;;;;;5054733;28;20040;-81
2021/09/09 17:57:51;;;;;;;10.85;6.80;;;21.50;1.00;;;;;;5028671;28;20049;-81
2021/09/09 18:00:30;;;;;;;11.70;6.78;;;21.50;1.00;;;;;;5015385;28;20167;-80
2021/09/09 18:02:56;;;;;;;9.52;7.00;;;21.40;1.00;;;;;;4994080;28;20037;-81
2021/09/09 18:05:22;;;;;;;9.88;6.95;;;21.40;1.00;;;;;;5013263;28;20424;-81
2021/09/09 18:07:48;;;;;;;10.85;7.03;;;21.40;1.00;;;;;;5013593;28;20056;-80
2021/09/09 18:10:14;;;;;;;17.67;6.70;;;21.40;1.00;;;;;;4997229;28;20127;-79
2021/09/09 18:12:42;;;;;;;13.63;7.32;;;21.30;1.00;;;;;;5024567;28;20072;-81
2021/09/09 18:15:09;;;;;;;12.63;7.85;;;21.30;1.00;;;;;;5025476;28;20065;-81
2021/09/09 18:17:39;;;;;;;14.63;7.50;;;21.30;1.00;;;;;;5001916;28;20497;-83
2021/09/09 18:20:06;;;;;;;11.88;6.90;;;21.30;1.00;;;;;;4993211;28;20042;-80
2021/09/09 18:22:32;;;;;;;9.90;7.10;;;21.30;1.00;;;;;;4994998;28;20133;-80
2021/09/09 18:24:58;;;;;;;10.23;7.28;;;21.30;1.00;;;;;;4997324;28;20122;-79
2021/09/09 18:27:24;;;;;;;10.07;7.30;;;21.30;1.00;;;;;;5008001;28;20493;-79
2021/09/09 18:29:50;;;;;;;14.98;7.60;;;21.30;1.00;;;;;;5011300;28;20096;-79
2021/09/09 18:32:15;;;;;;;15.55;7.47;;;21.20;1.00;;;;;;4993543;28;20048;-80
2021/09/09 18:34:41;;;;;;;11.73;7.15;;;21.20;1.00;;;;;;4992717;28;20558;-79
2021/09/09 18:37:08;;;;;;;11.35;7.03;;;21.20;1.00;;;;;;5011273;28;20050;-79
2021/09/09 18:39:35;;;;;;;13.80;7.80;;;21.10;1.00;;;;;;5011719;28;20107;-79
2021/09/09 18:42:01;;;;;;;12.77;7.57;;;21.10;1.00;;;;;;5010277;28;20065;-80
2021/09/09 18:44:27;;;;;;;12.98;7.22;;;21.00;1.00;;;;;;4992853;28;20054;-80
2021/09/09 18:46:53;;;;;;;12.93;7.63;;;21.00;1.00;;;;;;5010129;28;20104;-80
2021/09/09 18:49:19;;;;;;;11.52;7.47;;;21.00;1.00;;;;;;4994626;28;20038;-80
2021/09/09 18:51:45;;;;;;;11.75;7.82;;;20.90;1.00;;;;;;5013041;28;20121;-81
2021/09/09 18:54:11;;;;;;;11.55;7.88;;;20.90;1.00;;;;;;5009526;28;20591;-80
2021/09/09 18:56:40;;;;;;;13.75;7.95;;;20.90;1.00;;;;;;5011310;28;20042;-80
2021/09/09 18:59:05;;;;;;;14.07;7.40;;;20.90;1.00;;;;;;5011665;28;20092;-79
2021/09/09 19:01:31;;;;;;;9.85;7.63;;;20.90;1.00;;;;;;5012955;28;20453;-79
2021/09/09 19:03:58;;;;;;;12.10;8.05;;;20.90;1.00;;;;;;5047861;28;20037;-81
2021/09/09 19:06:24;;;;;;;12.35;7.40;;;20.90;1.00;;;;;;5032829;28;20037;-81
2021/09/09 19:08:50;;;;;;;16.77;8.25;;;20.90;1.00;;;;;;5052603;28;20195;-81
2021/09/09 19:11:17;;;;;;;10.05;6.97;;;20.90;1.00;;;;;;5045397;28;20044;-80
2021/09/09 19:13:43;;;;;;;11.32;7.60;;;20.80;1.00;;;;;;5014517;28;20080;-79
2021/09/09 19:16:10;;;;;;;15.80;7.63;;;20.80;1.00;;;;;;5032711;28;20033;-79
2021/09/09 19:18:36;;;;;;;13.32;7.70;;;20.90;1.00;;;;;;5018594;28;20049;-79
2021/09/09 19:21:02;;;;;;;11.95;7.32;;;20.80;1.00;;;;;;5034881;28;20045;-79
2021/09/09 19:23:28;;;;;;;13.10;7.55;;;20.80;1.00;;;;;;5018536;28;20038;-79
2021/09/09 19:25:55;;;;;;;10.05;7.60;;;20.80;1.00;;;;;;5036336;28;20064;-80
2021/09/09 19:28:23;;;;;;;8.85;7.25;;;20.60;1.00;;;;;;5053675;28;20037;-80
2021/09/09 19:30:49;;;;;;;13.43;7.95;;;20.70;1.00;;;;;;5056137;28;20033;-79
2021/09/09 19:33:16;;;;;;;12.30;7.70;;;20.60;1.00;;;;;;5055758;28;20128;-79
2021/09/09 19:35:46;;;;;;;12.82;7.85;;;20.60;1.00;;;;;;5054636;28;20102;-79
2021/09/09 19:38:17;;;;;;;17.58;8.52;;;20.60;1.00;;;;;;5037330;28;20057;-80
2021/09/09 19:40:44;;;;;;;12.75;7.57;;;20.70;1.00;;;;;;5054962;28;20040;-79
2021/09/09 19:43:11;;;;;;;11.43;7.72;;;20.60;1.00;;;;;;5055527;28;20033;-80
2021/09/09 19:45:37;;;;;;;12.52;8.23;;;20.60;1.00;;;;;;5054518;28;20062;-79
2021/09/09 19:48:03;;;;;;;11.35;7.30;;;20.60;1.00;;;;;;5055682;28;20040;-80
2021/09/09 19:50:29;;;;;;;14.70;8.32;;;20.60;1.00;;;;;;5055361;28;20139;-79
2021/09/09 19:52:58;;;;;;;12.23;7.93;;;20.60;1.00;;;;;;5029788;28;20132;-79
2021/09/09 19:55:24;;;;;;;11.00;7.63;;;20.50;1.00;;;;;;5045414;28;20041;-80
2021/09/09 19:57:50;;;;;;;11.30;8.30;;;20.50;1.00;;;;;;5055881;28;20059;-80
2021/09/09 20:00:16;;;;;;;15.50;8.55;;;20.50;1.00;;;;;;5038439;28;20048;-80
2021/09/09 20:02:42;;;;;;;11.80;7.95;;;20.50;1.00;;;;;;5036469;28;20040;-81
2021/09/09 20:05:08;;;;;;;12.15;8.45;;;20.40;1.00;;;;;;5035158;28;20032;-80
2021/09/09 20:07:37;;;;;;;15.02;8.20;;;20.40;1.00;;;;;;5036906;28;20443;-81
2021/09/09 20:10:29;;;;;;;;;;;;;;;;;;;;;
2021/09/09 20:13:07;;;;;;;8.73;7.85;;;20.40;1.00;;;;;;5055555;28;20043;-82
2021/09/09 20:15:33;;;;;;;14.13;8.85;;;20.30;1.00;;;;;;5038239;28;20045;-81
2021/09/09 20:17:58;;;;;;;15.02;8.07;;;20.20;1.00;;;;;;5028274;28;20045;-81
2021/09/09 20:20:27;;;;;;;14.70;8.60;;;20.30;1.00;;;;;;5034625;28;20033;-82
2021/09/09 20:22:53;;;;;;;12.43;8.10;;;20.20;1.00;;;;;;5034619;28;20384;-82
2021/09/09 20:25:22;;;;;;;12.27;7.88;;;20.20;1.00;;;;;;5034448;28;20033;-82
